| time (UTC) | temp F | wind direction | speed MPH | gust MPH | rain 1hr in | rain 24hr in | rain mn in | humidity % | barometer mb |
| 20260510174530 | 77 | 268 | 3.0 | 8.0 | 0.00 | 0.00 | 0.00 | 50 | 1112.9 |
| 20260510173039 | 78 | 251 | 3.0 | 8.0 | 0.00 | 0.00 | 0.00 | 50 | 1112.9 |
| 20260510171537 | 77 | 331 | 1.0 | 4.0 | 0.00 | 0.00 | 0.00 | 53 | 1113.1 |
| 20260510164540 | 74 | 263 | 2.0 | 8.0 | 0.00 | 0.00 | 0.00 | 58 | 1113.2 |
| 20260510163040 | 74 | 213 | 2.0 | 5.0 | 0.00 | 0.00 | 0.00 | 61 | 1113.5 |
| 20260510161540 | 72 | 250 | 1.0 | 6.0 | 0.00 | 0.00 | 0.00 | 62 | 1113.7 |
| 20260510160029 | 73 | 267 | 2.0 | 6.0 | 0.00 | 0.00 | 0.00 | 63 | 1113.7 |
| 20260510154532 | 73 | 290 | 0.0 | 5.0 | 0.00 | 0.00 | 0.00 | 69 | 1113.9 |
| 20260510153032 | 71 | 275 | 1.0 | 5.0 | 0.00 | 0.00 | 0.00 | 71 | 1113.9 |
| 20260510151530 | 70 | 326 | 1.0 | 3.0 | 0.00 | 0.00 | 0.00 | 74 | 1113.8 |
| 20260510150039 | 68 | 276 | 1.0 | 5.0 | 0.00 | 0.00 | 0.00 | 78 | 1113.8 |
| 20260510144540 | 67 | 240 | 0.0 | 5.0 | 0.00 | 0.00 | 0.00 | 84 | 1113.8 |
| 20260510143032 | 65 | 219 | 0.0 | 5.0 | 0.00 | 0.00 | 0.00 | 87 | 1113.9 |
| 20260510141538 | 64 | 204 | 0.0 | 4.0 | 0.00 | 0.00 | 0.00 | 92 | 1113.9 |
| 20260510140032 | 61 | 214 | 1.0 | 5.0 | 0.00 | 0.00 | 0.00 | 95 | 1114.1 |
| 20260510134540 | 60 | 202 | 1.0 | 4.0 | 0.00 | 0.00 | 0.00 | 96 | 1114.3 |
| 20260510131530 | 58 | 117 | 0.0 | 1.0 | 0.00 | 0.00 | 0.00 | 97 | 1114.2 |
| 20260510130038 | 56 | 157 | 0.0 | 2.0 | 0.00 | 0.00 | 0.00 | 98 | 1114.1 |
| 20260510124530 | 54 | 144 | 0.0 | 3.0 | 0.00 | 0.00 | 0.00 | 98 | 1114.1 |
| 20260510111614 | 41 | 225 | 0.0 | 0.0 | 0.00 | 0.00 | 0.00 | 97 | 1112.5 |
| 20260510104540 | 40 | 225 | 0.0 | 0.0 | 0.00 | 0.00 | 0.00 | 97 | 1112.0 |
| 20260510103029 | 41 | 225 | 0.0 | 0.0 | 0.00 | 0.00 | 0.00 | 97 | 1111.8 |
| 20260510101538 | 41 | 225 | 0.0 | 0.0 | 0.00 | 0.00 | 0.00 | 97 | 1111.6 |
| 20260510100038 | 41 | 225 | 0.0 | 0.0 | 0.00 | 0.00 | 0.00 | 96 | 1111.2 |
| 20260510094540 | 41 | 225 | 0.0 | 0.0 | 0.00 | 0.00 | 0.00 | 96 | 1111.0 |
| 20260510093029 | 41 | 225 | 0.0 | 0.0 | 0.00 | 0.00 | 0.00 | 96 | 1110.8 |
| 20260510091615 | 41 | 225 | 0.0 | 0.0 | 0.00 | 0.00 | 0.00 | 96 | 1110.8 |
| 20260510090040 | 41 | 225 | 0.0 | 0.0 | 0.00 | 0.00 | 0.00 | 96 | 1110.7 |
| 20260510084539 | 41 | 225 | 0.0 | 0.0 | 0.00 | 0.00 | 0.00 | 96 | 1110.5 |
| 20260510083037 | 41 | 225 | 0.0 | 0.0 | 0.00 | 0.00 | 0.00 | 96 | 1110.4 |
| 20260510081531 | 42 | 225 | 0.0 | 0.0 | 0.00 | 0.00 | 0.00 | 96 | 1110.2 |
| 20260510080038 | 42 | 225 | 0.0 | 0.0 | 0.00 | 0.00 | 0.00 | 96 | 1109.9 |
| 20260510074642 | 43 | 225 | 0.0 | 0.0 | 0.00 | 0.00 | 0.00 | 95 | 1109.8 |
| 20260510071649 | 43 | 225 | 0.0 | 0.0 | 0.00 | 0.00 | 0.00 | 95 | 1109.8 |
| 20260510064531 | 44 | 225 | 0.0 | 0.0 | 0.00 | 0.00 | 0.00 | 95 | 1109.9 |
| 20260510063033 | 44 | 225 | 0.0 | 0.0 | 0.00 | 0.00 | 0.00 | 95 | 1110.0 |
| 20260510061641 | 45 | 225 | 0.0 | 0.0 | 0.00 | 0.00 | 0.00 | 95 | 1110.0 |
| 20260510060114 | 45 | 225 | 0.0 | 0.0 | 0.00 | 0.00 | 0.00 | 95 | 1110.1 |
| 20260510054529 | 45 | 225 | 0.0 | 0.0 | 0.00 | 0.00 | 0.00 | 94 | 1110.1 |
| 20260510053041 | 46 | 225 | 0.0 | 0.0 | 0.00 | 0.00 | 0.00 | 94 | 1110.1 |
| 20260510051539 | 46 | 225 | 0.0 | 0.0 | 0.00 | 0.00 | 0.00 | 94 | 1109.9 |
| 20260510050149 | 47 | 225 | 0.0 | 0.0 | 0.00 | 0.00 | 0.00 | 94 | 1109.9 |
| 20260510044530 | 48 | 225 | 0.0 | 0.0 | 0.00 | 0.00 | 0.00 | 94 | 1109.9 |
| 20260510040031 | 50 | 225 | 0.0 | 0.0 | 0.00 | 0.00 | 0.00 | 92 | 1109.6 |
| 20260510034606 | 50 | 225 | 0.0 | 0.0 | 0.00 | 0.00 | 0.00 | 92 | 1109.6 |
| 20260510033039 | 51 | 225 | 0.0 | 0.0 | 0.00 | 0.00 | 0.00 | 92 | 1109.6 |
| 20260510031615 | 52 | 225 | 0.0 | 0.0 | 0.00 | 0.00 | 0.00 | 91 | 1109.6 |
| 20260510030041 | 52 | 225 | 0.0 | 0.0 | 0.00 | 0.00 | 0.00 | 90 | 1109.5 |
| 20260510024533 | 53 | 225 | 0.0 | 1.0 | 0.00 | 0.00 | 0.00 | 89 | 1109.3 |
| 20260510023039 | 54 | 225 | 0.0 | 0.0 | 0.00 | 0.00 | 0.00 | 89 | 1109.2 |
| 20260510021529 | 55 | 225 | 0.0 | 1.0 | 0.00 | 0.00 | 0.00 | 88 | 1109.0 |
| 20260510014529 | 57 | 225 | 0.0 | 1.0 | 0.00 | 0.00 | 0.00 | 85 | 1108.4 |
| 20260510010038 | 62 | 225 | 0.0 | 1.0 | 0.00 | 0.00 | 0.00 | 75 | 1107.8 |
| 20260510004539 | 64 | 225 | 0.0 | 0.0 | 0.00 | 0.00 | 0.00 | 69 | 1107.5 |
| 20260510003038 | 67 | 225 | 0.0 | 0.0 | 0.00 | 0.00 | 0.00 | 65 | 1107.0 |
| 20260510001610 | 70 | 225 | 0.0 | 0.0 | 0.00 | 0.00 | 0.00 | 62 | 1106.6 |
| 20260510000041 | 73 | 225 | 0.0 | 0.0 | 0.00 | 0.00 | 0.00 | 58 | 1106.4 |